Terminal Aerodrome Forecast
Issued by NWS Hastings, NE

Home | Current Version | Previous Version | Text Only | Print | Product List | Glossary On
Versions: 1 2 3 4 5 6 7 8 9 10 11 12 13 14 15 16 17 18 19 20 21 22 23 24 25 26 27 28
000
FTUS43 KGID 192340
TAFGRI
TAF
KGRI 192340Z 2000/2024 16014G21KT P6SM SCT250
     FM200300 17017G25KT P6SM BKN035
     FM200700 17014G22KT P6SM BKN010
     FM201600 26013G20KT P6SM BKN050
     FM201700 30015G23KT P6SM SCT090
     FM202000 33017G24KT P6SM SCT200=

USA.gov is the U.S. government's official web portal to all federal, state and local government web resources and services.